Time;durP1;ratioP1;P1;durP2;ratioP2;P2;SDS_P1;SDS_P2;PMS_P1;PMS_P2;Temp;Humidity;BMP_temperature;BMP_pressure;BME280_temperature;BME280_humidity;BME280_pressure;Samples;Min_cycle;Max_cycle;Signal;HPM_P1;HPM_P2
2019/08/18 00:00:43;;;;;;;5.2;4;;;;;;;17.51;88.52637;94945.14;;;;
2019/08/18 00:01:52;;;;;;;5.2;4;;;;;;;17.51;88.52637;94945.14;;;;
2019/08/18 00:02:54;;;;;;;5.2;4;;;;;;;17.51;88.52637;94945.14;;;;
2019/08/18 00:03:57;;;;;;;5.2;4;;;;;;;17.51;88.52637;94945.14;;;;
2019/08/18 00:05:00;;;;;;;5.2;4;;;;;;;17.51;88.52637;94945.14;;;;
2019/08/18 00:06:02;;;;;;;5.2;4;;;;;;;17.51;88.52637;94945.14;;;;
2019/08/18 00:07:04;;;;;;;5.2;4;;;;;;;17.51;88.52637;94945.14;;;;
2019/08/18 00:08:06;;;;;;;5.55;4;;;;;;;17.6;88.93262;94932.09;;;;
2019/08/18 00:09:07;;;;;;;5.55;4;;;;;;;17.6;88.93262;94932.09;;;;
2019/08/18 00:10:10;;;;;;;5.55;4;;;;;;;17.6;88.93262;94932.09;;;;
2019/08/18 00:11:15;;;;;;;5.55;4;;;;;;;17.6;88.93262;94932.09;;;;
2019/08/18 00:12:17;;;;;;;5.55;4;;;;;;;17.6;88.93262;94932.09;;;;
2019/08/18 00:13:19;;;;;;;5.55;4;;;;;;;17.6;88.93262;94932.09;;;;
2019/08/18 00:14:21;;;;;;;5.55;4;;;;;;;17.6;88.93262;94932.09;;;;
2019/08/18 00:15:22;;;;;;;5.55;4;;;;;;;17.6;88.93262;94932.09;;;;
2019/08/18 00:16:24;;;;;;;5.55;4;;;;;;;17.6;88.93262;94932.09;;;;
2019/08/18 00:17:26;;;;;;;5.55;4;;;;;;;17.6;88.93262;94932.09;;;;
2019/08/18 00:18:27;;;;;;;4.6;4.05;;;;;;;17.55;89.1582;94931.31;;;;
2019/08/18 00:19:30;;;;;;;4.6;4.05;;;;;;;17.55;89.1582;94931.31;;;;
2019/08/18 00:20:31;;;;;;;4.6;4.05;;;;;;;17.55;89.1582;94931.31;;;;
2019/08/18 00:21:46;;;;;;;4.6;4.05;;;;;;;17.55;89.1582;94931.31;;;;
2019/08/18 00:22:48;;;;;;;4.6;4.05;;;;;;;17.55;89.1582;94931.31;;;;
2019/08/18 00:23:49;;;;;;;4.6;4.05;;;;;;;17.55;89.1582;94931.31;;;;
2019/08/18 00:24:51;;;;;;;4.6;4.05;;;;;;;17.55;89.1582;94931.31;;;;
2019/08/18 00:25:53;;;;;;;4.6;4.05;;;;;;;17.55;89.1582;94931.31;;;;
2019/08/18 00:26:54;;;;;;;4.6;4.05;;;;;;;17.55;89.1582;94931.31;;;;
2019/08/18 00:27:56;;;;;;;4.6;4.05;;;;;;;17.55;89.1582;94931.31;;;;
2019/08/18 00:28:57;;;;;;;4.9;4.3;;;;;;;17.52;89.59766;94919.62;;;;
2019/08/18 00:29:59;;;;;;;4.9;4.3;;;;;;;17.52;89.59766;94919.62;;;;
2019/08/18 00:31:00;;;;;;;4.9;4.3;;;;;;;17.52;89.59766;94919.62;;;;
2019/08/18 00:32:07;;;;;;;4.9;4.3;;;;;;;17.52;89.59766;94919.62;;;;
2019/08/18 00:33:08;;;;;;;4.9;4.3;;;;;;;17.52;89.59766;94919.62;;;;
2019/08/18 00:34:10;;;;;;;4.9;4.3;;;;;;;17.52;89.59766;94919.62;;;;
2019/08/18 00:35:12;;;;;;;4.9;4.3;;;;;;;17.52;89.59766;94919.62;;;;
2019/08/18 00:36:14;;;;;;;4.9;4.3;;;;;;;17.52;89.59766;94919.62;;;;
2019/08/18 00:37:18;;;;;;;4.9;4.3;;;;;;;17.52;89.59766;94919.62;;;;
2019/08/18 00:38:19;;;;;;;4.9;4.3;;;;;;;17.52;89.59766;94919.62;;;;
2019/08/18 00:39:21;;;;;;;5.850001;4.4;;;;;;;17.4;89.79199;94906.72;;;;
2019/08/18 00:40:25;;;;;;;5.850001;4.4;;;;;;;17.4;89.79199;94906.72;;;;
2019/08/18 00:41:44;;;;;;;5.850001;4.4;;;;;;;17.4;89.79199;94906.72;;;;
2019/08/18 00:42:56;;;;;;;5.850001;4.4;;;;;;;17.4;89.79199;94906.72;;;;
2019/08/18 00:43:57;;;;;;;5.850001;4.4;;;;;;;17.4;89.79199;94906.72;;;;
2019/08/18 00:44:59;;;;;;;5.850001;4.4;;;;;;;17.4;89.79199;94906.72;;;;
2019/08/18 00:46:00;;;;;;;5.850001;4.4;;;;;;;17.4;89.79199;94906.72;;;;
2019/08/18 00:47:03;;;;;;;5.850001;4.4;;;;;;;17.4;89.79199;94906.72;;;;
2019/08/18 00:48:05;;;;;;;5.850001;4.4;;;;;;;17.4;89.79199;94906.72;;;;
2019/08/18 00:49:07;;;;;;;5.850001;4.4;;;;;;;17.4;89.79199;94906.72;;;;
2019/08/18 00:50:11;;;;;;;5.95;4.65;;;;;;;17.38;90.09961;94900.73;;;;
2019/08/18 00:51:14;;;;;;;5.95;4.65;;;;;;;17.38;90.09961;94900.73;;;;
2019/08/18 00:52:17;;;;;;;5.95;4.65;;;;;;;17.38;90.09961;94900.73;;;;
2019/08/18 00:53:18;;;;;;;5.95;4.65;;;;;;;17.38;90.09961;94900.73;;;;
2019/08/18 00:54:20;;;;;;;5.95;4.65;;;;;;;17.38;90.09961;94900.73;;;;
2019/08/18 00:55:22;;;;;;;5.95;4.65;;;;;;;17.38;90.09961;94900.73;;;;
2019/08/18 00:56:24;;;;;;;5.95;4.65;;;;;;;17.38;90.09961;94900.73;;;;
2019/08/18 00:57:25;;;;;;;5.95;4.65;;;;;;;17.38;90.09961;94900.73;;;;
2019/08/18 00:58:26;;;;;;;5.95;4.65;;;;;;;17.38;90.09961;94900.73;;;;
2019/08/18 00:59:28;;;;;;;5.95;4.65;;;;;;;17.38;90.09961;94900.73;;;;
2019/08/18 01:00:30;;;;;;;5.3;4.5;;;;;;;17.22;90.32617;94894.73;;;;
2019/08/18 01:01:45;;;;;;;5.3;4.5;;;;;;;17.22;90.32617;94894.73;;;;
2019/08/18 01:02:47;;;;;;;5.3;4.5;;;;;;;17.22;90.32617;94894.73;;;;
2019/08/18 01:03:48;;;;;;;5.3;4.5;;;;;;;17.22;90.32617;94894.73;;;;
2019/08/18 01:04:51;;;;;;;5.3;4.5;;;;;;;17.22;90.32617;94894.73;;;;
2019/08/18 01:05:54;;;;;;;5.3;4.5;;;;;;;17.22;90.32617;94894.73;;;;
2019/08/18 01:06:55;;;;;;;5.3;4.5;;;;;;;17.22;90.32617;94894.73;;;;
2019/08/18 01:07:57;;;;;;;5.3;4.5;;;;;;;17.22;90.32617;94894.73;;;;
2019/08/18 01:08:59;;;;;;;5.3;4.5;;;;;;;17.22;90.32617;94894.73;;;;
2019/08/18 01:10:01;;;;;;;5.3;4.5;;;;;;;17.22;90.32617;94894.73;;;;
2019/08/18 01:11:07;;;;;;;5.1;4.6;;;;;;;17.14;90.98145;94890.33;;;;
2019/08/18 01:12:10;;;;;;;5.1;4.6;;;;;;;17.14;90.98145;94890.33;;;;
2019/08/18 01:13:12;;;;;;;5.1;4.6;;;;;;;17.14;90.98145;94890.33;;;;
2019/08/18 01:14:14;;;;;;;5.1;4.6;;;;;;;17.14;90.98145;94890.33;;;;
2019/08/18 01:15:17;;;;;;;5.1;4.6;;;;;;;17.14;90.98145;94890.33;;;;
2019/08/18 01:16:20;;;;;;;5.1;4.6;;;;;;;17.14;90.98145;94890.33;;;;
2019/08/18 01:17:22;;;;;;;5.1;4.6;;;;;;;17.14;90.98145;94890.33;;;;
2019/08/18 01:18:24;;;;;;;5.1;4.6;;;;;;;17.14;90.98145;94890.33;;;;
2019/08/18 01:19:26;;;;;;;5.1;4.6;;;;;;;17.14;90.98145;94890.33;;;;
2019/08/18 01:20:28;;;;;;;5.1;4.6;;;;;;;17.14;90.98145;94890.33;;;;
2019/08/18 01:21:37;;;;;;;6.75;4.799999;;;;;;;17.02;91.59375;94883.04;;;;
2019/08/18 01:22:39;;;;;;;6.75;4.799999;;;;;;;17.02;91.59375;94883.04;;;;
2019/08/18 01:23:41;;;;;;;6.75;4.799999;;;;;;;17.02;91.59375;94883.04;;;;
2019/08/18 01:24:42;;;;;;;6.75;4.799999;;;;;;;17.02;91.59375;94883.04;;;;
2019/08/18 01:25:44;;;;;;;6.75;4.799999;;;;;;;17.02;91.59375;94883.04;;;;
2019/08/18 01:26:46;;;;;;;6.75;4.799999;;;;;;;17.02;91.59375;94883.04;;;;
2019/08/18 01:27:48;;;;;;;6.75;4.799999;;;;;;;17.02;91.59375;94883.04;;;;
2019/08/18 01:28:50;;;;;;;6.75;4.799999;;;;;;;17.02;91.59375;94883.04;;;;
2019/08/18 01:29:57;;;;;;;6.75;4.799999;;;;;;;17.02;91.59375;94883.04;;;;
2019/08/18 01:31:06;;;;;;;6.75;4.799999;;;;;;;17.02;91.59375;94883.04;;;;
2019/08/18 01:32:09;;;;;;;6.600001;4.75;;;;;;;17.02;92.1123;94872.71;;;;
2019/08/18 01:33:13;;;;;;;6.600001;4.75;;;;;;;17.02;92.1123;94872.71;;;;
2019/08/18 01:34:15;;;;;;;6.600001;4.75;;;;;;;17.02;92.1123;94872.71;;;;
2019/08/18 01:35:18;;;;;;;6.600001;4.75;;;;;;;17.02;92.1123;94872.71;;;;
2019/08/18 01:36:20;;;;;;;6.600001;4.75;;;;;;;17.02;92.1123;94872.71;;;;
2019/08/18 01:37:22;;;;;;;6.600001;4.75;;;;;;;17.02;92.1123;94872.71;;;;
2019/08/18 01:38:24;;;;;;;6.600001;4.75;;;;;;;17.02;92.1123;94872.71;;;;
2019/08/18 01:39:25;;;;;;;6.600001;4.75;;;;;;;17.02;92.1123;94872.71;;;;
2019/08/18 01:40:28;;;;;;;6.600001;4.75;;;;;;;17.02;92.1123;94872.71;;;;
2019/08/18 01:41:30;;;;;;;6.600001;4.75;;;;;;;17.02;92.1123;94872.71;;;;
2019/08/18 01:42:32;;;;;;;6.600001;4.75;;;;;;;17.02;92.1123;94872.71;;;;
2019/08/18 01:43:33;;;;;;;5.75;4.7;;;;;;;16.81;92.55566;94867.53;;;;
2019/08/18 01:44:35;;;;;;;5.75;4.7;;;;;;;16.81;92.55566;94867.53;;;;
2019/08/18 01:45:37;;;;;;;5.75;4.7;;;;;;;16.81;92.55566;94867.53;;;;
2019/08/18 01:46:38;;;;;;;5.75;4.7;;;;;;;16.81;92.55566;94867.53;;;;
2019/08/18 01:47:40;;;;;;;5.75;4.7;;;;;;;16.81;92.55566;94867.53;;;;
2019/08/18 01:48:42;;;;;;;5.75;4.7;;;;;;;16.81;92.55566;94867.53;;;;
2019/08/18 01:49:43;;;;;;;5.75;4.7;;;;;;;16.81;92.55566;94867.53;;;;
2019/08/18 01:50:45;;;;;;;5.75;4.7;;;;;;;16.81;92.55566;94867.53;;;;
2019/08/18 01:52:01;;;;;;;5.75;4.7;;;;;;;16.81;92.55566;94867.53;;;;
2019/08/18 01:53:04;;;;;;;5.75;4.7;;;;;;;16.81;92.55566;94867.53;;;;
2019/08/18 01:54:06;;;;;;;6.3;4.7;;;;;;;16.55;93.20117;94870.19;;;;
2019/08/18 01:55:10;;;;;;;6.3;4.7;;;;;;;16.55;93.20117;94870.19;;;;
2019/08/18 01:56:13;;;;;;;6.3;4.7;;;;;;;16.55;93.20117;94870.19;;;;
2019/08/18 01:57:15;;;;;;;6.3;4.7;;;;;;;16.55;93.20117;94870.19;;;;
2019/08/18 01:58:16;;;;;;;6.3;4.7;;;;;;;16.55;93.20117;94870.19;;;;
2019/08/18 01:59:18;;;;;;;6.3;4.7;;;;;;;16.55;93.20117;94870.19;;;;
2019/08/18 02:00:20;;;;;;;6.3;4.7;;;;;;;16.55;93.20117;94870.19;;;;
2019/08/18 02:01:22;;;;;;;6.3;4.7;;;;;;;16.55;93.20117;94870.19;;;;
2019/08/18 02:02:24;;;;;;;6.3;4.7;;;;;;;16.55;93.20117;94870.19;;;;
2019/08/18 02:03:26;;;;;;;6.3;4.7;;;;;;;16.55;93.20117;94870.19;;;;
2019/08/18 02:04:29;;;;;;;5.149999;4.649999;;;;;;;16.27;93.85352;94858.06;;;;
2019/08/18 02:05:31;;;;;;;5.149999;4.649999;;;;;;;16.27;93.85352;94858.06;;;;
2019/08/18 02:06:33;;;;;;;5.149999;4.649999;;;;;;;16.27;93.85352;94858.06;;;;
2019/08/18 02:07:35;;;;;;;5.149999;4.649999;;;;;;;16.27;93.85352;94858.06;;;;
2019/08/18 02:08:37;;;;;;;5.149999;4.649999;;;;;;;16.27;93.85352;94858.06;;;;
2019/08/18 02:09:40;;;;;;;5.149999;4.649999;;;;;;;16.27;93.85352;94858.06;;;;
2019/08/18 02:10:47;;;;;;;5.149999;4.649999;;;;;;;16.27;93.85352;94858.06;;;;
2019/08/18 02:12:02;;;;;;;5.149999;4.649999;;;;;;;16.27;93.85352;94858.06;;;;
2019/08/18 02:13:12;;;;;;;5.149999;4.649999;;;;;;;16.27;93.85352;94858.06;;;;
2019/08/18 02:14:14;;;;;;;5.149999;4.649999;;;;;;;16.27;93.85352;94858.06;;;;
2019/08/18 02:15:15;;;;;;;6.550001;4.649999;;;;;;;16.21;94.4668;94836.97;;;;
2019/08/18 02:16:17;;;;;;;6.550001;4.649999;;;;;;;16.21;94.4668;94836.97;;;;
2019/08/18 02:17:19;;;;;;;6.550001;4.649999;;;;;;;16.21;94.4668;94836.97;;;;
2019/08/18 02:18:21;;;;;;;6.550001;4.649999;;;;;;;16.21;94.4668;94836.97;;;;
2019/08/18 02:19:23;;;;;;;6.550001;4.649999;;;;;;;16.21;94.4668;94836.97;;;;
2019/08/18 02:20:24;;;;;;;6.550001;4.649999;;;;;;;16.21;94.4668;94836.97;;;;
2019/08/18 02:21:26;;;;;;;6.550001;4.649999;;;;;;;16.21;94.4668;94836.97;;;;
2019/08/18 02:22:28;;;;;;;6.550001;4.649999;;;;;;;16.21;94.4668;94836.97;;;;
2019/08/18 02:23:30;;;;;;;6.550001;4.649999;;;;;;;16.21;94.4668;94836.97;;;;
2019/08/18 02:24:31;;;;;;;6.550001;4.649999;;;;;;;16.21;94.4668;94836.97;;;;
2019/08/18 02:25:33;;;;;;;5.5;4.75;;;;;;;16.19;94.8291;94834.53;;;;
2019/08/18 02:26:35;;;;;;;5.5;4.75;;;;;;;16.19;94.8291;94834.53;;;;
2019/08/18 02:27:37;;;;;;;5.5;4.75;;;;;;;16.19;94.8291;94834.53;;;;
2019/08/18 02:28:40;;;;;;;5.5;4.75;;;;;;;16.19;94.8291;94834.53;;;;
2019/08/18 02:29:42;;;;;;;5.5;4.75;;;;;;;16.19;94.8291;94834.53;;;;
2019/08/18 02:30:45;;;;;;;5.5;4.75;;;;;;;16.19;94.8291;94834.53;;;;
2019/08/18 02:31:52;;;;;;;5.5;4.75;;;;;;;16.19;94.8291;94834.53;;;;
2019/08/18 02:33:00;;;;;;;5.5;4.75;;;;;;;16.19;94.8291;94834.53;;;;
2019/08/18 02:34:01;;;;;;;5.5;4.75;;;;;;;16.19;94.8291;94834.53;;;;
2019/08/18 02:35:03;;;;;;;5.5;4.75;;;;;;;16.19;94.8291;94834.53;;;;
2019/08/18 02:36:05;;;;;;;5.299999;4.55;;;;;;;16.22;95.2334;94830.86;;;;
2019/08/18 02:37:07;;;;;;;5.299999;4.55;;;;;;;16.22;95.2334;94830.86;;;;
2019/08/18 02:38:09;;;;;;;5.299999;4.55;;;;;;;16.22;95.2334;94830.86;;;;
2019/08/18 02:39:11;;;;;;;5.299999;4.55;;;;;;;16.22;95.2334;94830.86;;;;
2019/08/18 02:40:13;;;;;;;5.299999;4.55;;;;;;;16.22;95.2334;94830.86;;;;
2019/08/18 02:41:15;;;;;;;5.299999;4.55;;;;;;;16.22;95.2334;94830.86;;;;
2019/08/18 02:42:17;;;;;;;5.299999;4.55;;;;;;;16.22;95.2334;94830.86;;;;
2019/08/18 02:43:19;;;;;;;5.299999;4.55;;;;;;;16.22;95.2334;94830.86;;;;
2019/08/18 02:44:20;;;;;;;5.299999;4.55;;;;;;;16.22;95.2334;94830.86;;;;
2019/08/18 02:45:22;;;;;;;5.299999;4.55;;;;;;;16.22;95.2334;94830.86;;;;
2019/08/18 02:46:30;;;;;;;5.8;4.8;;;;;;;16.13;95.5791;94817.97;;;;
2019/08/18 02:47:31;;;;;;;5.8;4.8;;;;;;;16.13;95.5791;94817.97;;;;
2019/08/18 02:48:33;;;;;;;5.8;4.8;;;;;;;16.13;95.5791;94817.97;;;;
2019/08/18 02:49:34;;;;;;;5.8;4.8;;;;;;;16.13;95.5791;94817.97;;;;
2019/08/18 02:50:35;;;;;;;5.8;4.8;;;;;;;16.13;95.5791;94817.97;;;;
2019/08/18 02:51:37;;;;;;;5.8;4.8;;;;;;;16.13;95.5791;94817.97;;;;
2019/08/18 02:52:38;;;;;;;5.8;4.8;;;;;;;16.13;95.5791;94817.97;;;;
2019/08/18 02:53:39;;;;;;;5.8;4.8;;;;;;;16.13;95.5791;94817.97;;;;
2019/08/18 02:54:40;;;;;;;5.8;4.8;;;;;;;16.13;95.5791;94817.97;;;;
2019/08/18 02:55:42;;;;;;;5.8;4.8;;;;;;;16.13;95.5791;94817.97;;;;
2019/08/18 02:56:43;;;;;;;6.9;4.65;;;;;;;16.09;96.02344;94800.14;;;;
2019/08/18 02:57:45;;;;;;;6.9;4.65;;;;;;;16.09;96.02344;94800.14;;;;
2019/08/18 02:58:46;;;;;;;6.9;4.65;;;;;;;16.09;96.02344;94800.14;;;;
2019/08/18 02:59:47;;;;;;;6.9;4.65;;;;;;;16.09;96.02344;94800.14;;;;
2019/08/18 03:00:49;;;;;;;6.9;4.65;;;;;;;16.09;96.02344;94800.14;;;;
2019/08/18 03:01:51;;;;;;;6.9;4.65;;;;;;;16.09;96.02344;94800.14;;;;
2019/08/18 03:02:52;;;;;;;6.9;4.65;;;;;;;16.09;96.02344;94800.14;;;;
2019/08/18 03:03:53;;;;;;;6.9;4.65;;;;;;;16.09;96.02344;94800.14;;;;
2019/08/18 03:04:55;;;;;;;6.9;4.65;;;;;;;16.09;96.02344;94800.14;;;;
2019/08/18 03:05:56;;;;;;;6.9;4.65;;;;;;;16.09;96.02344;94800.14;;;;
2019/08/18 03:06:57;;;;;;;6.9;4.65;;;;;;;16.09;96.02344;94800.14;;;;
2019/08/18 03:07:58;;;;;;;6.449999;4.599999;;;;;;;15.89;96.55078;94790.72;;;;
2019/08/18 03:09:00;;;;;;;6.449999;4.599999;;;;;;;15.89;96.55078;94790.72;;;;
2019/08/18 03:10:01;;;;;;;6.449999;4.599999;;;;;;;15.89;96.55078;94790.72;;;;
2019/08/18 03:11:07;;;;;;;6.449999;4.599999;;;;;;;15.89;96.55078;94790.72;;;;
2019/08/18 03:12:09;;;;;;;6.449999;4.599999;;;;;;;15.89;96.55078;94790.72;;;;
2019/08/18 03:13:11;;;;;;;6.449999;4.599999;;;;;;;15.89;96.55078;94790.72;;;;
2019/08/18 03:14:13;;;;;;;6.449999;4.599999;;;;;;;15.89;96.55078;94790.72;;;;
2019/08/18 03:15:15;;;;;;;6.449999;4.599999;;;;;;;15.89;96.55078;94790.72;;;;
2019/08/18 03:16:17;;;;;;;6.449999;4.599999;;;;;;;15.89;96.55078;94790.72;;;;
2019/08/18 03:17:18;;;;;;;6.449999;4.599999;;;;;;;15.89;96.55078;94790.72;;;;
2019/08/18 03:18:20;;;;;;;6.6;4.900001;;;;;;;15.74;97.18555;94798.01;;;;
2019/08/18 03:19:21;;;;;;;6.6;4.900001;;;;;;;15.74;97.18555;94798.01;;;;
2019/08/18 03:20:22;;;;;;;6.6;4.900001;;;;;;;15.74;97.18555;94798.01;;;;
2019/08/18 03:21:36;;;;;;;6.6;4.900001;;;;;;;15.74;97.18555;94798.01;;;;
2019/08/18 03:22:37;;;;;;;6.6;4.900001;;;;;;;15.74;97.18555;94798.01;;;;
2019/08/18 03:23:39;;;;;;;6.6;4.900001;;;;;;;15.74;97.18555;94798.01;;;;
2019/08/18 03:24:40;;;;;;;6.6;4.900001;;;;;;;15.74;97.18555;94798.01;;;;
2019/08/18 03:25:41;;;;;;;6.6;4.900001;;;;;;;15.74;97.18555;94798.01;;;;
2019/08/18 03:26:43;;;;;;;6.6;4.900001;;;;;;;15.74;97.18555;94798.01;;;;
2019/08/18 03:27:44;;;;;;;6.6;4.900001;;;;;;;15.74;97.18555;94798.01;;;;
2019/08/18 03:28:46;;;;;;;5.65;5.099999;;;;;;;15.56;97.79102;94787.77;;;;
2019/08/18 03:29:47;;;;;;;5.65;5.099999;;;;;;;15.56;97.79102;94787.77;;;;
2019/08/18 03:30:48;;;;;;;5.65;5.099999;;;;;;;15.56;97.79102;94787.77;;;;
2019/08/18 03:31:50;;;;;;;5.65;5.099999;;;;;;;15.56;97.79102;94787.77;;;;
2019/08/18 03:32:51;;;;;;;5.65;5.099999;;;;;;;15.56;97.79102;94787.77;;;;
2019/08/18 03:33:52;;;;;;;5.65;5.099999;;;;;;;15.56;97.79102;94787.77;;;;
2019/08/18 03:34:53;;;;;;;5.65;5.099999;;;;;;;15.56;97.79102;94787.77;;;;
2019/08/18 03:35:54;;;;;;;5.65;5.099999;;;;;;;15.56;97.79102;94787.77;;;;
2019/08/18 03:36:56;;;;;;;5.65;5.099999;;;;;;;15.56;97.79102;94787.77;;;;
2019/08/18 03:37:57;;;;;;;5.65;5.099999;;;;;;;15.56;97.79102;94787.77;;;;
2019/08/18 03:38:58;;;;;;;5.65;5.099999;;;;;;;15.56;97.79102;94787.77;;;;
2019/08/18 03:39:59;;;;;;;5.2;4.7;;;;;;;15.61;98.33887;94788.16;;;;
2019/08/18 03:41:01;;;;;;;5.2;4.7;;;;;;;15.61;98.33887;94788.16;;;;
2019/08/18 03:42:03;;;;;;;5.2;4.7;;;;;;;15.61;98.33887;94788.16;;;;
2019/08/18 03:43:05;;;;;;;5.2;4.7;;;;;;;15.61;98.33887;94788.16;;;;
2019/08/18 03:44:07;;;;;;;5.2;4.7;;;;;;;15.61;98.33887;94788.16;;;;
2019/08/18 03:45:08;;;;;;;5.2;4.7;;;;;;;15.61;98.33887;94788.16;;;;
2019/08/18 03:46:10;;;;;;;5.2;4.7;;;;;;;15.61;98.33887;94788.16;;;;
2019/08/18 03:47:12;;;;;;;5.2;4.7;;;;;;;15.61;98.33887;94788.16;;;;
2019/08/18 03:48:13;;;;;;;5.2;4.7;;;;;;;15.61;98.33887;94788.16;;;;
2019/08/18 03:49:14;;;;;;;5.2;4.7;;;;;;;15.61;98.33887;94788.16;;;;
2019/08/18 03:50:15;;;;;;;5.1;4.6;;;;;;;15.64;98.61328;94794.94;;;;
2019/08/18 03:51:17;;;;;;;5.1;4.6;;;;;;;15.64;98.61328;94794.94;;;;
2019/08/18 03:52:18;;;;;;;5.1;4.6;;;;;;;15.64;98.61328;94794.94;;;;
2019/08/18 03:53:19;;;;;;;5.1;4.6;;;;;;;15.64;98.61328;94794.94;;;;
2019/08/18 03:54:20;;;;;;;5.1;4.6;;;;;;;15.64;98.61328;94794.94;;;;
2019/08/18 03:55:21;;;;;;;5.1;4.6;;;;;;;15.64;98.61328;94794.94;;;;
2019/08/18 03:56:25;;;;;;;5.1;4.6;;;;;;;15.64;98.61328;94794.94;;;;
2019/08/18 03:57:26;;;;;;;5.1;4.6;;;;;;;15.64;98.61328;94794.94;;;;
2019/08/18 03:58:27;;;;;;;5.1;4.6;;;;;;;15.64;98.61328;94794.94;;;;
2019/08/18 03:59:28;;;;;;;5.1;4.6;;;;;;;15.64;98.61328;94794.94;;;;
2019/08/18 04:00:29;;;;;;;6.1;3.85;;;;;;;15.76;99.00879;94801.26;;;;
2019/08/18 04:01:46;;;;;;;6.1;3.85;;;;;;;15.76;99.00879;94801.26;;;;
2019/08/18 04:02:48;;;;;;;6.1;3.85;;;;;;;15.76;99.00879;94801.26;;;;
2019/08/18 04:03:49;;;;;;;6.1;3.85;;;;;;;15.76;99.00879;94801.26;;;;
2019/08/18 04:04:50;;;;;;;6.1;3.85;;;;;;;15.76;99.00879;94801.26;;;;
2019/08/18 04:05:51;;;;;;;6.1;3.85;;;;;;;15.76;99.00879;94801.26;;;;
2019/08/18 04:06:52;;;;;;;6.1;3.85;;;;;;;15.76;99.00879;94801.26;;;;
2019/08/18 04:07:54;;;;;;;6.1;3.85;;;;;;;15.76;99.00879;94801.26;;;;
2019/08/18 04:08:55;;;;;;;6.1;3.85;;;;;;;15.76;99.00879;94801.26;;;;
2019/08/18 04:09:56;;;;;;;6.1;3.85;;;;;;;15.76;99.00879;94801.26;;;;
2019/08/18 04:10:57;;;;;;;6.1;3.85;;;;;;;15.76;99.00879;94801.26;;;;
2019/08/18 04:11:59;;;;;;;4.85;3.7;;;;;;;16.05;98.6709;94798.66;;;;
2019/08/18 04:13:00;;;;;;;4.85;3.7;;;;;;;16.05;98.6709;94798.66;;;;
2019/08/18 04:14:01;;;;;;;4.85;3.7;;;;;;;16.05;98.6709;94798.66;;;;
2019/08/18 04:15:03;;;;;;;4.85;3.7;;;;;;;16.05;98.6709;94798.66;;;;
2019/08/18 04:16:07;;;;;;;4.85;3.7;;;;;;;16.05;98.6709;94798.66;;;;
2019/08/18 04:17:11;;;;;;;4.85;3.7;;;;;;;16.05;98.6709;94798.66;;;;
2019/08/18 04:18:12;;;;;;;4.85;3.7;;;;;;;16.05;98.6709;94798.66;;;;
2019/08/18 04:19:13;;;;;;;4.85;3.7;;;;;;;16.05;98.6709;94798.66;;;;
2019/08/18 04:20:14;;;;;;;4.85;3.7;;;;;;;16.05;98.6709;94798.66;;;;
2019/08/18 04:21:16;;;;;;;4.85;3.7;;;;;;;16.05;98.6709;94798.66;;;;
2019/08/18 04:22:17;;;;;;;4.349999;3.6;;;;;;;16.5;98.27832;94808.34;;;;
2019/08/18 04:23:18;;;;;;;4.349999;3.6;;;;;;;16.5;98.27832;94808.34;;;;
2019/08/18 04:24:20;;;;;;;4.349999;3.6;;;;;;;16.5;98.27832;94808.34;;;;
2019/08/18 04:25:21;;;;;;;4.349999;3.6;;;;;;;16.5;98.27832;94808.34;;;;
2019/08/18 04:26:22;;;;;;;4.349999;3.6;;;;;;;16.5;98.27832;94808.34;;;;
2019/08/18 04:27:23;;;;;;;4.349999;3.6;;;;;;;16.5;98.27832;94808.34;;;;
2019/08/18 04:28:25;;;;;;;4.349999;3.6;;;;;;;16.5;98.27832;94808.34;;;;
2019/08/18 04:29:26;;;;;;;4.349999;3.6;;;;;;;16.5;98.27832;94808.34;;;;
2019/08/18 04:30:27;;;;;;;4.349999;3.6;;;;;;;16.5;98.27832;94808.34;;;;
2019/08/18 04:31:34;;;;;;;4.349999;3.6;;;;;;;16.5;98.27832;94808.34;;;;
2019/08/18 04:32:35;;;;;;;4.6;3.55;;;;;;;16.92;97.69141;94822.72;;;;
2019/08/18 04:33:36;;;;;;;4.6;3.55;;;;;;;16.92;97.69141;94822.72;;;;
2019/08/18 04:34:37;;;;;;;4.6;3.55;;;;;;;16.92;97.69141;94822.72;;;;
2019/08/18 04:35:38;;;;;;;4.6;3.55;;;;;;;16.92;97.69141;94822.72;;;;
2019/08/18 04:36:40;;;;;;;4.6;3.55;;;;;;;16.92;97.69141;94822.72;;;;
2019/08/18 04:37:41;;;;;;;4.6;3.55;;;;;;;16.92;97.69141;94822.72;;;;
2019/08/18 04:38:42;;;;;;;4.6;3.55;;;;;;;16.92;97.69141;94822.72;;;;
2019/08/18 04:39:43;;;;;;;4.6;3.55;;;;;;;16.92;97.69141;94822.72;;;;
2019/08/18 04:40:44;;;;;;;4.6;3.55;;;;;;;16.92;97.69141;94822.72;;;;
2019/08/18 04:41:45;;;;;;;4.6;3.55;;;;;;;16.92;97.69141;94822.72;;;;
2019/08/18 04:42:46;;;;;;;4.6;3.55;;;;;;;16.92;97.69141;94822.72;;;;
2019/08/18 04:43:48;;;;;;;4.8;3.95;;;;;;;17.31;97.13086;94828.48;;;;
2019/08/18 04:44:49;;;;;;;4.8;3.95;;;;;;;17.31;97.13086;94828.48;;;;
2019/08/18 04:45:50;;;;;;;4.8;3.95;;;;;;;17.31;97.13086;94828.48;;;;
2019/08/18 04:46:51;;;;;;;4.8;3.95;;;;;;;17.31;97.13086;94828.48;;;;
2019/08/18 04:47:52;;;;;;;4.8;3.95;;;;;;;17.31;97.13086;94828.48;;;;
2019/08/18 04:48:54;;;;;;;4.8;3.95;;;;;;;17.31;97.13086;94828.48;;;;
2019/08/18 04:49:55;;;;;;;4.8;3.95;;;;;;;17.31;97.13086;94828.48;;;;
2019/08/18 04:50:56;;;;;;;4.8;3.95;;;;;;;17.31;97.13086;94828.48;;;;
2019/08/18 04:51:57;;;;;;;4.8;3.95;;;;;;;17.31;97.13086;94828.48;;;;
2019/08/18 04:52:59;;;;;;;4.8;3.95;;;;;;;17.31;97.13086;94828.48;;;;
2019/08/18 04:54:00;;;;;;;4;3.5;;;;;;;17.54;96.69434;94835.52;;;;
2019/08/18 04:55:01;;;;;;;4;3.5;;;;;;;17.54;96.69434;94835.52;;;;
2019/08/18 04:56:04;;;;;;;4;3.5;;;;;;;17.54;96.69434;94835.52;;;;
2019/08/18 04:57:06;;;;;;;4;3.5;;;;;;;17.54;96.69434;94835.52;;;;
2019/08/18 04:58:07;;;;;;;4;3.5;;;;;;;17.54;96.69434;94835.52;;;;
2019/08/18 04:59:09;;;;;;;4;3.5;;;;;;;17.54;96.69434;94835.52;;;;
2019/08/18 05:00:10;;;;;;;4;3.5;;;;;;;17.54;96.69434;94835.52;;;;
2019/08/18 05:01:12;;;;;;;4;3.5;;;;;;;17.54;96.69434;94835.52;;;;
2019/08/18 05:02:16;;;;;;;4;3.5;;;;;;;17.54;96.69434;94835.52;;;;
2019/08/18 05:03:17;;;;;;;4;3.5;;;;;;;17.54;96.69434;94835.52;;;;
2019/08/18 05:04:18;;;;;;;4.650001;3.6;;;;;;;17.66;96.17773;94840.42;;;;
2019/08/18 05:05:20;;;;;;;4.650001;3.6;;;;;;;17.66;96.17773;94840.42;;;;
2019/08/18 05:06:21;;;;;;;4.650001;3.6;;;;;;;17.66;96.17773;94840.42;;;;
2019/08/18 05:07:22;;;;;;;4.650001;3.6;;;;;;;17.66;96.17773;94840.42;;;;
2019/08/18 05:08:23;;;;;;;4.650001;3.6;;;;;;;17.66;96.17773;94840.42;;;;
2019/08/18 05:09:24;;;;;;;4.650001;3.6;;;;;;;17.66;96.17773;94840.42;;;;
2019/08/18 05:10:25;;;;;;;4.650001;3.6;;;;;;;17.66;96.17773;94840.42;;;;
2019/08/18 05:11:27;;;;;;;4.650001;3.6;;;;;;;17.66;96.17773;94840.42;;;;
2019/08/18 05:12:28;;;;;;;4.650001;3.6;;;;;;;17.66;96.17773;94840.42;;;;
2019/08/18 05:13:29;;;;;;;4.650001;3.6;;;;;;;17.66;96.17773;94840.42;;;;
2019/08/18 05:14:30;;;;;;;4.650001;3.6;;;;;;;17.66;96.17773;94840.42;;;;
2019/08/18 05:15:32;;;;;;;4.65;3.6;;;;;;;17.65;95.91895;94845.06;;;;
2019/08/18 05:16:39;;;;;;;4.65;3.6;;;;;;;17.65;95.91895;94845.06;;;;
2019/08/18 05:17:40;;;;;;;4.65;3.6;;;;;;;17.65;95.91895;94845.06;;;;
2019/08/18 05:18:41;;;;;;;4.65;3.6;;;;;;;17.65;95.91895;94845.06;;;;
2019/08/18 05:19:43;;;;;;;4.65;3.6;;;;;;;17.65;95.91895;94845.06;;;;
2019/08/18 05:20:44;;;;;;;4.65;3.6;;;;;;;17.65;95.91895;94845.06;;;;
2019/08/18 05:21:45;;;;;;;4.65;3.6;;;;;;;17.65;95.91895;94845.06;;;;
2019/08/18 05:22:46;;;;;;;4.65;3.6;;;;;;;17.65;95.91895;94845.06;;;;
2019/08/18 05:23:47;;;;;;;4.65;3.6;;;;;;;17.65;95.91895;94845.06;;;;
2019/08/18 05:24:49;;;;;;;4.65;3.6;;;;;;;17.65;95.91895;94845.06;;;;
2019/08/18 05:25:50;;;;;;;4.2;3.6;;;;;;;17.71;95.75781;94844.86;;;;
2019/08/18 05:26:51;;;;;;;4.2;3.6;;;;;;;17.71;95.75781;94844.86;;;;
2019/08/18 05:27:52;;;;;;;4.2;3.6;;;;;;;17.71;95.75781;94844.86;;;;
2019/08/18 05:28:53;;;;;;;4.2;3.6;;;;;;;17.71;95.75781;94844.86;;;;
2019/08/18 05:29:54;;;;;;;4.2;3.6;;;;;;;17.71;95.75781;94844.86;;;;
2019/08/18 05:30:56;;;;;;;4.2;3.6;;;;;;;17.71;95.75781;94844.86;;;;
2019/08/18 05:31:57;;;;;;;4.2;3.6;;;;;;;17.71;95.75781;94844.86;;;;
2019/08/18 05:32:58;;;;;;;4.2;3.6;;;;;;;17.71;95.75781;94844.86;;;;
2019/08/18 05:33:59;;;;;;;4.2;3.6;;;;;;;17.71;95.75781;94844.86;;;;
2019/08/18 05:35:00;;;;;;;4.2;3.6;;;;;;;17.71;95.75781;94844.86;;;;
2019/08/18 05:36:04;;;;;;;4.9;3.4;;;;;;;17.81;95.53223;94842.95;;;;
2019/08/18 05:37:05;;;;;;;4.9;3.4;;;;;;;17.81;95.53223;94842.95;;;;
2019/08/18 05:38:06;;;;;;;4.9;3.4;;;;;;;17.81;95.53223;94842.95;;;;
2019/08/18 05:39:08;;;;;;;4.9;3.4;;;;;;;17.81;95.53223;94842.95;;;;
2019/08/18 05:40:09;;;;;;;4.9;3.4;;;;;;;17.81;95.53223;94842.95;;;;
2019/08/18 05:41:11;;;;;;;4.9;3.4;;;;;;;17.81;95.53223;94842.95;;;;
2019/08/18 05:42:13;;;;;;;4.9;3.4;;;;;;;17.81;95.53223;94842.95;;;;
2019/08/18 05:43:14;;;;;;;4.9;3.4;;;;;;;17.81;95.53223;94842.95;;;;
2019/08/18 05:44:15;;;;;;;4.9;3.4;;;;;;;17.81;95.53223;94842.95;;;;
2019/08/18 05:45:16;;;;;;;4.9;3.4;;;;;;;17.81;95.53223;94842.95;;;;
2019/08/18 05:46:18;;;;;;;4.9;3.4;;;;;;;17.81;95.53223;94842.95;;;;
2019/08/18 05:47:19;;;;;;;4.400001;3.65;;;;;;;18.19;95.02832;94853.81;;;;
2019/08/18 05:48:20;;;;;;;4.400001;3.65;;;;;;;18.19;95.02832;94853.81;;;;
2019/08/18 05:49:22;;;;;;;4.400001;3.65;;;;;;;18.19;95.02832;94853.81;;;;
2019/08/18 05:50:23;;;;;;;4.400001;3.65;;;;;;;18.19;95.02832;94853.81;;;;